createdAt,value
2019-05-14T00:01:24.694Z,70.80
2019-05-14T00:03:54.904Z,70.90
2019-05-14T00:06:24.646Z,71.20
2019-05-14T00:08:54.546Z,71.30
2019-05-14T00:11:24.317Z,71.70
2019-05-14T00:13:53.942Z,71.70
2019-05-14T00:16:24.382Z,71.90
2019-05-14T00:18:54.341Z,72.20
2019-05-14T00:21:24.240Z,72.50
2019-05-14T00:23:53.912Z,72.50
2019-05-14T00:26:24.205Z,73.10
2019-05-14T00:28:54.013Z,73.20
2019-05-14T00:31:23.723Z,73.40
2019-05-14T00:33:53.904Z,73.60
2019-05-14T00:36:23.622Z,73.60
2019-05-14T00:38:54.697Z,74.10
2019-05-14T00:41:24.548Z,74.40
2019-05-14T00:43:54.234Z,74.60
2019-05-14T00:46:24.022Z,75.00
2019-05-14T00:48:55.032Z,75.40
2019-05-14T00:51:24.848Z,75.50
2019-05-14T00:53:54.771Z,76.40
2019-05-14T00:56:24.697Z,76.10
2019-05-14T00:58:54.403Z,76.70
2019-05-14T01:01:24.048Z,77.50
2019-05-14T01:03:53.773Z,77.90
2019-05-14T01:06:23.802Z,78.70
2019-05-14T01:08:53.536Z,78.80
2019-05-14T01:11:23.251Z,79.40
2019-05-14T01:13:53.196Z,79.80
2019-05-14T01:16:23.191Z,80.00
2019-05-14T01:18:52.979Z,80.00
2019-05-14T01:21:22.690Z,80.10
2019-05-14T01:23:52.709Z,80.20
2019-05-14T01:26:22.558Z,80.30
2019-05-14T01:28:52.213Z,79.90
2019-05-14T01:31:22.393Z,79.90
2019-05-14T01:33:52.363Z,80.00
2019-05-14T01:36:22.078Z,80.00
2019-05-14T01:38:51.820Z,80.20
2019-05-14T01:41:22.367Z,80.10
2019-05-14T01:43:52.218Z,80.10
2019-05-14T01:46:21.981Z,80.30
2019-05-14T01:48:52.238Z,80.90
2019-05-14T01:51:23.536Z,80.80
2019-05-14T01:53:53.260Z,80.90
2019-05-14T01:56:22.909Z,81.20
2019-05-14T01:58:52.633Z,81.30
2019-05-14T02:01:23.345Z,81.60
2019-05-14T02:03:53.211Z,81.80
2019-05-14T02:06:22.999Z,82.10
2019-05-14T02:08:52.686Z,82.30
2019-05-14T02:11:22.322Z,82.70
2019-05-14T02:13:52.082Z,82.80
2019-05-14T02:16:22.144Z,82.90
2019-05-14T02:18:52.359Z,83.20
2019-05-14T02:21:22.871Z,83.40
2019-05-14T02:23:52.916Z,83.50
2019-05-14T02:26:22.634Z,83.60
2019-05-14T02:28:52.426Z,84.00
2019-05-14T02:31:22.450Z,84.00
2019-05-14T02:33:52.416Z,83.80
2019-05-14T02:36:22.142Z,83.90
2019-05-14T02:38:51.947Z,84.00
2019-05-14T02:41:21.713Z,84.80
2019-05-14T02:43:51.416Z,84.10
2019-05-14T02:46:22.160Z,84.40
2019-05-14T02:48:52.220Z,84.40
2019-05-14T02:51:22.135Z,84.50
2019-05-14T02:53:52.202Z,84.80
2019-05-14T02:56:22.312Z,84.80
2019-05-14T02:58:52.323Z,84.80
2019-05-14T03:01:22.093Z,85.00
2019-05-14T03:03:51.796Z,85.00
2019-05-14T03:06:21.667Z,85.30
2019-05-14T03:08:51.356Z,85.50
2019-05-14T03:11:21.214Z,85.30
2019-05-14T03:13:51.117Z,85.50
2019-05-14T03:16:30.334Z,85.20
2019-05-14T03:18:52.283Z,86.20
2019-05-14T03:21:22.555Z,85.50
2019-05-14T03:23:52.745Z,85.30
2019-05-14T03:26:22.529Z,85.10
2019-05-14T03:28:52.600Z,84.20
2019-05-14T03:31:22.986Z,84.00
2019-05-14T03:33:53.482Z,83.60
2019-05-14T03:36:26.439Z,83.00
2019-05-14T03:38:55.407Z,82.60
2019-05-14T03:41:25.203Z,82.10
2019-05-14T03:43:55.181Z,81.70
2019-05-14T03:46:43.654Z,81.10
2019-05-14T03:48:59.839Z,80.60
2019-05-14T03:51:29.814Z,80.40
2019-05-14T03:54:05.915Z,80.10
2019-05-14T03:56:30.685Z,79.60
2019-05-14T03:59:00.606Z,79.00
2019-05-14T04:01:30.731Z,78.90
2019-05-14T04:04:00.689Z,78.60
2019-05-14T04:06:31.643Z,77.90
2019-05-14T04:09:03.042Z,77.30
2019-05-14T04:11:35.118Z,76.80
2019-05-14T04:14:05.266Z,76.20
2019-05-14T04:16:39.918Z,76.00
2019-05-14T04:19:12.173Z,75.60
2019-05-14T04:21:43.526Z,74.80
2019-05-14T04:24:15.913Z,74.30
2019-05-14T04:26:58.202Z,73.70
2019-05-14T04:29:25.130Z,72.60
2019-05-14T04:32:09.495Z,71.30
2019-05-14T04:34:49.616Z,71.00
2019-05-14T04:37:29.000Z,70.20
2019-05-14T04:42:53.222Z,69.60
2019-05-14T04:45:23.666Z,68.60
2019-05-14T04:47:53.518Z,68.40
2019-05-14T04:50:25.607Z,68.40
2019-05-14T04:52:55.659Z,67.60
2019-05-14T04:55:25.619Z,67.20
2019-05-14T04:57:58.909Z,66.40
2019-05-14T05:00:30.533Z,65.60
2019-05-14T05:03:00.590Z,65.40
2019-05-14T05:05:30.334Z,64.40
2019-05-14T05:08:00.535Z,63.90
2019-05-14T05:10:34.359Z,63.10
2019-05-14T05:13:09.006Z,62.20
2019-05-14T05:15:59.110Z,61.90
2019-05-14T05:18:40.078Z,61.50
2019-05-14T05:21:10.323Z,60.30
2019-05-14T05:23:40.203Z,59.70
2019-05-14T05:26:09.942Z,59.80
2019-05-14T05:28:39.675Z,59.80
2019-05-14T05:31:09.563Z,59.70
2019-05-14T05:33:39.400Z,59.60
2019-05-14T05:36:09.554Z,59.20
2019-05-14T05:38:39.761Z,58.30
2019-05-14T05:41:09.888Z,58.10
2019-05-14T05:43:39.662Z,57.00
2019-05-14T05:46:10.151Z,55.40
2019-05-14T05:48:41.206Z,55.40
2019-05-14T05:51:11.647Z,54.80
2019-05-14T05:53:41.718Z,52.40
2019-05-14T05:56:11.650Z,51.10
2019-05-14T05:58:43.116Z,49.30
2019-05-14T06:01:13.142Z,47.20
2019-05-14T06:03:43.115Z,45.30
2019-05-14T06:06:13.792Z,45.30
2019-05-14T06:08:44.711Z,44.80
2019-05-14T06:11:15.419Z,46.10
2019-05-14T06:13:50.112Z,46.00
2019-05-14T06:16:20.118Z,43.80
2019-05-14T06:18:51.850Z,44.40
2019-05-14T06:21:22.943Z,47.20
2019-05-14T06:23:52.937Z,45.40
2019-05-14T06:26:22.747Z,44.30
2019-05-14T10:07:49.404Z,27.80
2019-05-14T10:10:19.788Z,27.50
2019-05-14T10:12:53.912Z,28.20
2019-05-14T10:15:21.384Z,28.20
2019-05-14T10:17:51.153Z,27.70
2019-05-14T10:20:36.537Z,28.20
2019-05-14T10:22:53.122Z,28.20
2019-05-14T10:25:22.857Z,28.30
2019-05-14T10:27:52.831Z,28.50
2019-05-14T10:30:23.170Z,28.40
2019-05-14T10:32:52.855Z,27.90
2019-05-14T10:35:24.107Z,27.50
2019-05-14T10:37:55.186Z,28.50
2019-05-14T10:40:29.055Z,29.40
2019-05-14T10:42:57.661Z,29.10
2019-05-14T10:45:28.928Z,28.60
2019-05-14T10:47:59.136Z,28.20
2019-05-14T10:50:55.214Z,28.50
2019-05-14T10:53:11.852Z,27.20
2019-05-14T10:55:58.433Z,25.40
2019-05-14T10:58:43.419Z,24.70
2019-05-14T11:20:51.853Z,26.60
2019-05-14T11:33:18.731Z,24.70
2019-05-14T11:36:38.652Z,25.90
2019-05-14T11:39:17.943Z,26.50
2019-05-14T11:41:45.277Z,27.60
2019-05-14T11:44:15.138Z,27.90
2019-05-14T11:46:52.461Z,27.80
2019-05-14T11:49:19.210Z,27.90
2019-05-14T11:52:01.020Z,29.70
2019-05-14T11:54:23.042Z,31.20
2019-05-14T11:56:51.714Z,31.90
2019-05-14T11:59:21.547Z,30.80
2019-05-14T12:01:54.877Z,29.50
2019-05-14T12:04:23.035Z,28.80
2019-05-14T12:06:52.768Z,27.30
2019-05-14T12:09:23.348Z,26.30
2019-05-14T12:11:53.347Z,26.00
2019-05-14T12:14:23.423Z,26.20
2019-05-14T12:16:53.225Z,26.90
2019-05-14T12:19:23.026Z,27.10
2019-05-14T12:22:03.648Z,27.50
2019-05-14T12:24:24.163Z,26.60
2019-05-14T12:26:53.873Z,27.10
2019-05-14T12:29:23.721Z,27.50
2019-05-14T12:31:53.503Z,26.30
2019-05-14T12:34:23.232Z,25.20
2019-05-14T12:36:53.105Z,23.20
2019-05-14T12:39:23.018Z,23.30
2019-05-14T12:41:52.848Z,24.70
2019-05-14T12:44:23.015Z,25.30
2019-05-14T12:46:52.948Z,24.40
2019-05-14T12:49:23.143Z,24.90
2019-05-14T12:51:53.199Z,26.00
2019-05-14T12:54:23.138Z,25.60
2019-05-14T12:56:52.789Z,24.30
2019-05-14T12:59:22.861Z,24.10
2019-05-14T13:01:52.592Z,23.70
2019-05-14T13:04:22.413Z,23.40
2019-05-14T13:06:53.022Z,23.20
2019-05-14T13:09:22.953Z,22.70
2019-05-14T13:11:52.685Z,23.30
2019-05-14T13:14:22.522Z,23.20
2019-05-14T13:16:54.562Z,23.70
2019-05-14T13:19:23.710Z,24.40
2019-05-14T13:22:08.677Z,24.90
2019-05-14T13:24:25.176Z,25.90
2019-05-14T13:26:55.264Z,25.30
2019-05-14T13:29:25.271Z,24.80
2019-05-14T13:31:55.262Z,23.60
2019-05-14T13:34:25.005Z,23.80
2019-05-14T13:36:54.700Z,23.70
2019-05-14T13:39:24.438Z,23.80
2019-05-14T13:41:54.370Z,23.80
2019-05-14T13:44:24.969Z,24.80
2019-05-14T13:46:55.209Z,25.90
2019-05-14T13:49:25.494Z,26.60
2019-05-14T13:51:55.262Z,26.30
2019-05-14T13:54:25.488Z,27.30
2019-05-14T13:56:55.325Z,28.40
2019-05-14T13:59:25.365Z,27.30
2019-05-14T14:01:55.366Z,27.50
2019-05-14T14:04:26.115Z,27.00
2019-05-14T14:06:58.807Z,27.60
2019-05-14T14:09:31.427Z,28.00
2019-05-14T14:12:00.206Z,27.60
2019-05-14T14:14:30.046Z,27.60
2019-05-14T14:16:59.924Z,27.60
2019-05-14T14:19:29.885Z,27.70
2019-05-14T14:21:59.690Z,27.80
2019-05-14T14:24:29.417Z,28.00
2019-05-14T14:26:59.184Z,28.40
2019-05-14T14:29:28.911Z,28.70
2019-05-14T14:31:59.027Z,28.20
2019-05-14T14:34:29.171Z,28.80
2019-05-14T14:36:59.524Z,28.60
2019-05-14T14:39:29.279Z,29.20
2019-05-14T14:41:58.995Z,29.50
2019-05-14T14:44:29.280Z,29.80
2019-05-14T14:46:59.355Z,29.70
2019-05-14T14:49:29.225Z,29.70
2019-05-14T14:51:59.162Z,29.60
2019-05-14T14:54:29.004Z,29.80
2019-05-14T14:56:59.240Z,30.00
2019-05-14T14:59:30.342Z,30.00
2019-05-14T15:02:00.524Z,30.40
2019-05-14T15:04:33.645Z,30.60
2019-05-14T15:07:03.763Z,31.70
2019-05-14T15:09:33.511Z,31.10
2019-05-14T15:12:04.946Z,30.70
2019-05-14T15:14:35.082Z,32.00
2019-05-14T15:17:05.206Z,33.20
2019-05-14T15:19:35.104Z,32.60
2019-05-14T15:22:04.970Z,33.40
2019-05-14T15:24:34.739Z,33.40
2019-05-14T15:27:08.820Z,33.10
2019-05-14T15:29:38.536Z,33.10
2019-05-14T15:32:10.720Z,33.50
2019-05-14T15:34:40.943Z,33.10
2019-05-14T15:37:13.793Z,33.70
2019-05-14T15:39:43.513Z,33.10
2019-05-14T15:42:14.068Z,32.50
2019-05-14T15:44:52.112Z,32.50
2019-05-14T15:47:18.813Z,33.40
2019-05-14T15:49:49.620Z,34.70
2019-05-14T15:52:21.331Z,35.40
2019-05-14T15:54:51.194Z,35.20
2019-05-14T15:57:20.959Z,35.90
2019-05-14T15:59:50.632Z,36.00
2019-05-14T16:02:20.392Z,35.40
2019-05-14T16:04:50.944Z,35.10
2019-05-14T16:07:24.539Z,34.50
2019-05-14T16:09:54.357Z,34.20
2019-05-14T16:12:31.906Z,34.30
2019-05-14T16:14:58.140Z,34.10
2019-05-14T16:17:30.315Z,34.70
2019-05-14T16:19:59.424Z,35.30
2019-05-14T16:22:29.432Z,35.10
2019-05-14T16:25:00.994Z,33.80
2019-05-14T16:27:30.570Z,34.80
2019-05-14T16:30:00.369Z,35.20
2019-05-14T16:32:30.785Z,35.00
2019-05-14T16:35:00.691Z,34.80
2019-05-14T16:37:30.887Z,34.70
2019-05-14T16:40:00.979Z,34.50
2019-05-14T16:42:31.054Z,34.60
2019-05-14T16:45:02.712Z,34.40
2019-05-14T16:47:32.834Z,34.50
2019-05-14T16:50:11.197Z,34.00
2019-05-14T16:52:43.648Z,34.10
2019-05-14T16:55:23.409Z,35.00
2019-05-14T16:57:46.202Z,35.40
2019-05-14T17:00:18.513Z,35.60
2019-05-14T17:02:48.418Z,35.80
2019-05-14T17:05:20.725Z,36.00
2019-05-14T17:07:50.746Z,36.00
2019-05-14T17:10:20.979Z,36.30
2019-05-14T17:12:56.937Z,37.10
2019-05-14T17:15:22.031Z,37.40
2019-05-14T17:17:59.395Z,37.70
2019-05-14T17:20:29.630Z,37.60
2019-05-14T17:22:59.554Z,38.10
2019-05-14T17:25:30.464Z,38.00
2019-05-14T17:28:03.278Z,37.80
2019-05-14T17:30:33.009Z,37.60
2019-05-14T17:33:05.636Z,37.60
2019-05-14T17:35:38.964Z,37.50
2019-05-14T17:38:09.242Z,37.90
2019-05-14T17:40:39.609Z,38.00
2019-05-14T17:43:09.848Z,38.20
2019-05-14T17:45:39.642Z,38.30
2019-05-14T17:48:11.012Z,38.20
2019-05-14T17:50:40.798Z,38.40
2019-05-14T17:53:10.914Z,38.30
2019-05-14T17:55:47.544Z,38.00
2019-05-14T17:58:18.603Z,38.30
2019-05-14T18:00:47.090Z,38.40
2019-05-14T18:03:18.386Z,38.20
2019-05-14T18:05:48.606Z,37.90
2019-05-14T18:08:20.127Z,37.90
2019-05-14T18:10:52.152Z,38.30
2019-05-14T18:13:21.631Z,38.20
2019-05-14T18:15:51.391Z,38.40
2019-05-14T18:18:21.215Z,38.60
2019-05-14T18:20:51.854Z,38.60
2019-05-14T18:23:21.947Z,39.10
2019-05-14T18:26:03.834Z,39.20
2019-05-14T18:28:23.762Z,39.40
2019-05-14T18:30:53.512Z,39.50
2019-05-14T18:33:26.342Z,39.90
2019-05-14T18:35:59.008Z,40.10
2019-05-14T18:38:29.866Z,40.30
2019-05-14T18:40:59.954Z,40.10
2019-05-14T18:43:30.381Z,40.10
2019-05-14T18:46:00.833Z,40.20
2019-05-14T18:48:31.928Z,40.10
2019-05-14T18:51:01.940Z,40.90
2019-05-14T18:53:31.783Z,40.30
2019-05-14T18:56:16.633Z,40.40
2019-05-14T18:58:38.689Z,40.50
2019-05-14T19:01:09.150Z,41.00
2019-05-14T19:03:39.896Z,41.10
2019-05-14T19:06:09.887Z,41.30
2019-05-14T19:08:41.272Z,41.40
2019-05-14T19:11:11.132Z,41.30
2019-05-14T19:13:41.072Z,41.50
2019-05-14T19:16:10.800Z,41.80
2019-05-14T19:18:40.556Z,41.90
2019-05-14T19:21:10.588Z,42.00
2019-05-14T19:23:40.673Z,42.20
2019-05-14T19:26:10.441Z,42.60
2019-05-14T19:28:40.355Z,42.80
2019-05-14T19:31:10.213Z,42.70
2019-05-14T19:33:41.110Z,43.30
2019-05-14T19:36:11.817Z,43.40
2019-05-14T19:38:41.544Z,42.70
2019-05-14T19:41:11.511Z,42.50
2019-05-14T19:43:41.329Z,42.70
2019-05-14T19:46:11.053Z,42.90
2019-05-14T19:48:40.924Z,42.90
2019-05-14T19:51:10.708Z,43.10
2019-05-14T19:53:40.880Z,43.10
2019-05-14T19:56:10.693Z,44.00
2019-05-14T19:58:42.349Z,44.10
2019-05-14T20:01:12.238Z,44.50
2019-05-14T20:03:42.373Z,44.70
2019-05-14T20:06:12.106Z,45.10
2019-05-14T20:08:41.901Z,44.80
2019-05-14T20:11:11.960Z,45.50
2019-05-14T20:13:42.029Z,46.80
2019-05-14T20:16:11.843Z,47.00
2019-05-14T20:18:41.647Z,46.70
2019-05-14T20:21:11.718Z,46.70
2019-05-14T20:23:41.837Z,47.10
2019-05-14T20:26:11.899Z,47.30
2019-05-14T20:28:41.703Z,47.30
2019-05-14T20:31:11.486Z,47.30
2019-05-14T20:33:41.452Z,47.40
2019-05-14T20:36:11.277Z,47.10
2019-05-14T20:38:41.332Z,46.30
2019-05-14T20:41:11.357Z,46.50
2019-05-14T20:43:41.068Z,46.90
2019-05-14T20:46:10.797Z,46.80
2019-05-14T20:48:40.505Z,46.60
2019-05-14T20:51:10.229Z,47.00
2019-05-14T20:53:39.926Z,47.30
2019-05-14T20:56:09.828Z,47.80
2019-05-14T20:58:39.534Z,48.30
2019-05-14T21:01:11.413Z,49.00
2019-05-14T21:03:43.952Z,48.40
2019-05-14T21:06:12.386Z,48.70
2019-05-14T21:08:42.163Z,48.30
2019-05-14T21:11:11.884Z,48.40
2019-05-14T21:13:41.597Z,49.50
2019-05-14T21:16:11.609Z,50.20
2019-05-14T21:18:41.578Z,50.90
2019-05-14T21:21:11.378Z,51.20
2019-05-14T21:23:41.034Z,52.40
2019-05-14T21:26:10.677Z,52.70
2019-05-14T21:28:40.330Z,53.00
2019-05-14T21:31:10.616Z,53.00
2019-05-14T21:33:40.293Z,52.70
2019-05-14T21:36:12.339Z,53.20
2019-05-14T21:38:41.434Z,53.60
2019-05-14T21:41:11.415Z,54.00
2019-05-14T21:43:41.407Z,53.80
2019-05-14T21:46:11.033Z,53.50
2019-05-14T21:48:41.025Z,53.50
2019-05-14T21:51:10.951Z,53.50
2019-05-14T21:53:41.330Z,54.30
2019-05-14T21:56:11.382Z,54.90
2019-05-14T21:58:41.114Z,55.10
2019-05-14T22:01:11.722Z,54.80
2019-05-14T22:03:41.478Z,54.70
2019-05-14T22:06:11.332Z,54.70
2019-05-14T22:08:41.177Z,54.80
2019-05-14T22:11:11.053Z,54.90
2019-05-14T22:13:40.945Z,55.00
2019-05-14T22:16:10.727Z,55.20
2019-05-14T22:18:40.699Z,55.30
2019-05-14T22:21:10.739Z,55.60
2019-05-14T22:23:40.549Z,56.00
2019-05-14T22:26:10.282Z,56.50
2019-05-14T22:28:39.988Z,56.80
2019-05-14T22:31:09.692Z,57.10
2019-05-14T22:33:39.334Z,57.10
2019-05-14T22:36:09.029Z,57.20
2019-05-14T22:38:39.079Z,57.20
2019-05-14T22:41:11.594Z,57.20
2019-05-14T22:43:40.441Z,57.40
2019-05-14T22:46:10.246Z,57.20
2019-05-14T22:48:39.906Z,57.20
2019-05-14T22:51:09.551Z,57.50
2019-05-14T22:53:39.249Z,57.80
2019-05-14T22:56:09.331Z,58.10
2019-05-14T22:58:39.283Z,58.70
2019-05-14T23:01:14.856Z,59.10
2019-05-14T23:03:40.506Z,59.50
2019-05-14T23:06:10.500Z,59.90
2019-05-14T23:08:40.538Z,60.30
2019-05-14T23:11:10.440Z,60.50
2019-05-14T23:13:40.470Z,60.60
2019-05-14T23:16:10.530Z,60.90
2019-05-14T23:18:40.245Z,61.10
2019-05-14T23:21:10.229Z,61.50
2019-05-14T23:23:39.900Z,61.70
2019-05-14T23:26:09.621Z,61.60
2019-05-14T23:28:45.506Z,62.00
2019-05-14T23:31:10.871Z,62.10
2019-05-14T23:33:40.653Z,62.20
2019-05-14T23:36:10.803Z,62.30
2019-05-14T23:38:40.575Z,62.30
2019-05-14T23:41:10.361Z,62.60
2019-05-14T23:43:40.099Z,62.60
2019-05-14T23:46:09.883Z,62.70
2019-05-14T23:48:39.886Z,62.80
2019-05-14T23:51:09.678Z,63.00
2019-05-14T23:53:39.493Z,63.20
2019-05-14T23:56:09.309Z,63.30
2019-05-14T23:58:53.184Z,63.30
